Yokosuka Fwf, Japan

6:22 PM JST on August 29, 2016 (GMT +0900)
Obaradai | | Change Station

Elev 154 ft 35.25 °N, 139.72 °E | Updated 0 second ago

Light Rain
Light Rain
81.0 °F
Feels Like 87 °F
N
10.3
Wind Variable Wind from NNW
Gusts 15.0 mph

Today
High -- | Low -- °F
--% Chance of Precip.
Yesterday
High -- | Low -- °F
Precip. -- in
Pressure 29.26 in
Visibility 8.0 miles
Clouds Few 3000 ft
Mostly Cloudy 3600 ft
Overcast 6000 ft
Heat Index 87 °F
Dew Point 76 °F
Humidity 85%
Rainfall 0.25 in
Snow Depth Not available.
5:11 AM 6:12 PM
Waning Crescent, 10% visible
SPECI RJTR 290918Z AUTO 35009KT 220V020 8SM -RA FEW030 BKN036 OVC060 27/26 A2926 RMK AO2 RAB18
Pressure 29.26 in
Visibility 8.0 miles
Clouds Few 3000 ft
Mostly Cloudy 3600 ft
Overcast 6000 ft
Heat Index 87 °F
Dew Point 76 °F
Humidity 85%
Rainfall 0.25 in
Snow Depth Not available.
5:11 AM 6:12 PM
Waning Crescent, 10% visible
SPECI RJTR 290918Z AUTO 35009KT 220V020 8SM -RA FEW030 BKN036 OVC060 27/26 A2926 RMK AO2 RAB18

10-Day Weather Forecast

No radar image for this location.
×

Almanac

Astronomy

Aug. 29, 2016 Rise Set
Actual Time
Civil Twilight
Nautical Twilight
Astronomical Twilight
Moon
Length of Visible Light
Length of Day
Tomorrow will be .
, % of the Moon is Illuminated

Today's Extremes

Country Highs Country Lows

Community

WunderPhotos

Upload Photos

1,935,798 photos uploaded!

WunderBlog® & News

Nearby

Air Quality

  Air Quality AQ Index Pollutant
Not available.

Snow Depth

Station Depth Elevation

Earthquake Activity

City Distance Mag. Time & Date
Minimum magnitude displayed is 2.5.

Coastal Water Temperatures

Place Temperature

Stations

Nearby Weather Stations

Station Location Temp. Windchill Dew Point Humidity Wind Precip. Elev Updated Type